createdAt,value
2023-06-19T00:00:36.879Z,41.06
2023-06-19T00:01:36.960Z,41.16
2023-06-19T00:02:37.052Z,41.21
2023-06-19T00:03:37.010Z,41.08
2023-06-19T00:04:36.970Z,40.95
2023-06-19T00:05:36.991Z,40.88
2023-06-19T00:06:36.993Z,40.95
2023-06-19T00:07:37.027Z,41.04
2023-06-19T00:08:37.071Z,41.11
2023-06-19T00:09:37.100Z,41.23
2023-06-19T00:10:37.139Z,41.19
2023-06-19T00:11:37.184Z,41.39
2023-06-19T00:12:37.230Z,41.70
2023-06-19T00:13:37.246Z,41.75
2023-06-19T00:14:37.240Z,41.77
2023-06-19T00:15:37.226Z,41.96
2023-06-19T00:16:37.304Z,42.22
2023-06-19T00:17:37.265Z,42.50
2023-06-19T00:18:37.250Z,42.46
2023-06-19T00:19:37.326Z,42.44
2023-06-19T00:20:37.217Z,42.49
2023-06-19T00:21:37.207Z,42.83
2023-06-19T00:22:37.184Z,43.10
2023-06-19T00:23:37.197Z,43.23
2023-06-19T00:24:37.219Z,43.32
2023-06-19T00:25:37.177Z,43.49
2023-06-19T00:26:37.184Z,43.67
2023-06-19T00:27:37.201Z,43.85
2023-06-19T00:28:37.200Z,43.61
2023-06-19T00:29:37.225Z,43.59
2023-06-19T00:30:37.235Z,43.65
2023-06-19T00:31:37.238Z,43.81
2023-06-19T00:32:37.284Z,43.58
2023-06-19T00:33:37.295Z,43.42
2023-06-19T00:34:37.262Z,43.94
2023-06-19T00:35:37.272Z,44.06
2023-06-19T00:36:37.284Z,44.14
2023-06-19T00:37:37.310Z,44.51
2023-06-19T00:38:37.360Z,44.05
2023-06-19T00:39:37.348Z,44.20
2023-06-19T00:40:37.380Z,43.75
2023-06-19T00:41:37.379Z,43.46
2023-06-19T00:42:37.403Z,43.56
2023-06-19T00:43:37.488Z,43.55
2023-06-19T00:44:37.464Z,43.89
2023-06-19T00:45:37.497Z,44.10
2023-06-19T00:46:38.194Z,44.26
2023-06-19T00:47:37.495Z,44.26
2023-06-19T00:48:37.545Z,44.24
2023-06-19T00:49:37.643Z,44.13
2023-06-19T00:50:37.581Z,43.72
2023-06-19T00:51:37.644Z,43.13
2023-06-19T00:52:37.642Z,43.06
2023-06-19T00:53:37.681Z,43.21
2023-06-19T00:54:37.716Z,43.38
2023-06-19T00:55:37.720Z,43.87
2023-06-19T00:56:37.699Z,44.19
2023-06-19T00:57:37.684Z,44.26
2023-06-19T00:58:37.725Z,44.37
2023-06-19T00:59:37.676Z,44.16
2023-06-19T01:00:37.689Z,43.92
2023-06-19T01:01:37.694Z,43.63
2023-06-19T01:02:38.029Z,43.41
2023-06-19T01:03:37.938Z,43.55
2023-06-19T01:04:37.724Z,43.28
2023-06-19T01:05:37.639Z,43.20
2023-06-19T01:06:37.609Z,43.25
2023-06-19T01:07:37.637Z,43.18
2023-06-19T01:08:37.639Z,42.73
2023-06-19T01:09:37.664Z,42.33
2023-06-19T01:10:37.663Z,42.57
2023-06-19T01:11:37.612Z,42.52
2023-06-19T01:12:37.661Z,42.61
2023-06-19T01:13:37.717Z,42.84
2023-06-19T01:14:37.713Z,43.82
2023-06-19T01:15:37.797Z,44.02
2023-06-19T01:16:37.882Z,44.58
2023-06-19T01:17:37.894Z,44.57
2023-06-19T01:18:37.923Z,44.61
2023-06-19T01:19:37.941Z,44.41
2023-06-19T01:20:37.969Z,44.45
2023-06-19T01:21:37.985Z,44.32
2023-06-19T01:22:38.024Z,44.47
2023-06-19T01:23:38.081Z,44.79
2023-06-19T01:24:38.156Z,44.66
2023-06-19T01:25:38.276Z,44.70
2023-06-19T01:26:38.240Z,44.64
2023-06-19T01:27:38.285Z,44.61
2023-06-19T01:28:38.325Z,44.63
2023-06-19T01:29:38.333Z,44.80
2023-06-19T01:30:38.370Z,45.02
2023-06-19T01:31:38.343Z,45.42
2023-06-19T01:32:38.383Z,45.55
2023-06-19T01:33:38.385Z,45.48
2023-06-19T01:34:40.955Z,45.18
2023-06-19T01:35:38.392Z,44.86
2023-06-19T01:36:38.359Z,44.32
2023-06-19T01:37:38.405Z,44.13
2023-06-19T01:38:38.376Z,44.00
2023-06-19T01:39:38.378Z,43.87
2023-06-19T01:40:38.325Z,44.03
2023-06-19T01:41:38.326Z,44.25
2023-06-19T01:42:38.334Z,44.04
2023-06-19T01:43:38.349Z,43.85
2023-06-19T01:44:38.340Z,43.85
2023-06-19T01:45:38.301Z,44.03
2023-06-19T01:46:38.341Z,44.21
2023-06-19T01:47:38.328Z,44.32
2023-06-19T01:48:38.319Z,44.62
2023-06-19T01:49:38.289Z,44.60
2023-06-19T01:50:38.283Z,44.64
2023-06-19T01:51:38.312Z,44.41
2023-06-19T01:52:38.287Z,44.18
2023-06-19T01:53:38.256Z,44.10
2023-06-19T01:54:38.257Z,43.86
2023-06-19T01:55:38.250Z,43.83
2023-06-19T01:56:38.267Z,43.75
2023-06-19T01:57:38.210Z,44.14
2023-06-19T01:58:38.231Z,44.56
2023-06-19T01:59:38.246Z,44.58
2023-06-19T02:00:38.230Z,44.54
2023-06-19T02:01:38.234Z,44.34
2023-06-19T02:02:38.320Z,44.09
2023-06-19T02:03:38.317Z,44.16
2023-06-19T02:04:38.203Z,44.45
2023-06-19T02:05:38.185Z,44.64
2023-06-19T02:06:38.187Z,44.63
2023-06-19T02:07:38.173Z,44.74
2023-06-19T02:08:38.190Z,44.88
2023-06-19T02:09:38.168Z,45.13
2023-06-19T02:10:38.169Z,45.52
2023-06-19T02:11:38.139Z,45.53
2023-06-19T02:12:38.190Z,45.67
2023-06-19T02:13:40.189Z,45.67
2023-06-19T02:14:38.321Z,45.80
2023-06-19T02:15:38.355Z,45.76
2023-06-19T02:16:38.437Z,45.55
2023-06-19T02:17:38.451Z,45.34
2023-06-19T02:18:38.453Z,45.41
2023-06-19T02:19:38.445Z,45.63
2023-06-19T02:20:38.469Z,45.99
2023-06-19T02:21:38.517Z,46.11
2023-06-19T02:22:38.543Z,46.29
2023-06-19T02:23:38.584Z,46.43
2023-06-19T02:24:38.646Z,46.34
2023-06-19T02:25:38.618Z,46.31
2023-06-19T02:26:38.682Z,46.35
2023-06-19T02:27:38.703Z,46.42
2023-06-19T02:28:39.001Z,46.22
2023-06-19T02:29:38.719Z,46.36
2023-06-19T02:30:38.719Z,46.49
2023-06-19T02:31:38.753Z,46.44
2023-06-19T02:32:38.822Z,46.60
2023-06-19T02:33:38.835Z,46.59
2023-06-19T02:34:38.906Z,46.84
2023-06-19T02:35:38.959Z,46.86
2023-06-19T02:36:39.028Z,46.56
2023-06-19T02:37:39.114Z,46.61
2023-06-19T02:38:39.189Z,46.71
2023-06-19T02:39:39.164Z,46.90
2023-06-19T02:40:39.160Z,46.82
2023-06-19T02:41:39.221Z,46.77
2023-06-19T02:42:39.200Z,46.91
2023-06-19T02:43:39.218Z,46.96
2023-06-19T02:44:39.264Z,46.97
2023-06-19T02:45:39.277Z,46.83
2023-06-19T02:46:39.285Z,46.91
2023-06-19T02:47:39.384Z,47.07
2023-06-19T02:48:39.380Z,47.22
2023-06-19T02:50:58.684Z,47.23
2023-06-19T02:51:58.684Z,47.33
2023-06-19T02:52:58.641Z,47.89
2023-06-19T02:53:58.657Z,48.11
2023-06-19T02:54:58.700Z,48.21
2023-06-19T02:55:58.676Z,48.17
2023-06-19T02:56:58.669Z,48.30
2023-06-19T02:57:58.626Z,48.40
2023-06-19T02:58:58.640Z,48.50
2023-06-19T02:59:58.916Z,48.44
2023-06-19T03:00:58.628Z,48.47
2023-06-19T03:01:58.589Z,48.58
2023-06-19T03:02:58.751Z,48.69
2023-06-19T03:03:58.617Z,48.94
2023-06-19T03:04:58.610Z,49.02
2023-06-19T03:05:58.558Z,48.99
2023-06-19T03:06:58.565Z,49.12
2023-06-19T03:07:58.538Z,49.23
2023-06-19T03:08:58.562Z,49.33
2023-06-19T03:09:58.566Z,49.47
2023-06-19T03:10:58.563Z,49.81
2023-06-19T03:11:58.554Z,50.03
2023-06-19T03:12:58.497Z,50.13
2023-06-19T03:13:58.540Z,50.30
2023-06-19T03:14:58.505Z,50.31
2023-06-19T03:15:58.526Z,50.38
2023-06-19T03:16:58.539Z,50.39
2023-06-19T03:17:58.579Z,50.47
2023-06-19T03:18:58.589Z,50.56
2023-06-19T03:19:58.504Z,50.58
2023-06-19T03:20:58.461Z,50.38
2023-06-19T03:21:58.455Z,50.40
2023-06-19T03:22:58.496Z,50.25
2023-06-19T03:23:58.487Z,50.29
2023-06-19T03:24:58.452Z,50.17
2023-06-19T03:25:58.456Z,49.97
2023-06-19T03:26:58.462Z,49.87
2023-06-19T03:27:58.465Z,49.88
2023-06-19T03:28:58.431Z,49.93
2023-06-19T03:29:58.465Z,49.94
2023-06-19T03:30:58.423Z,49.92
2023-06-19T03:31:58.429Z,49.85
2023-06-19T03:32:58.457Z,49.84
2023-06-19T03:33:58.409Z,49.61
2023-06-19T03:34:58.414Z,49.49
2023-06-19T03:35:58.402Z,49.42
2023-06-19T03:36:58.357Z,49.17
2023-06-19T03:37:58.358Z,49.22
2023-06-19T03:38:58.411Z,48.94
2023-06-19T03:39:58.394Z,48.56
2023-06-19T03:40:58.470Z,48.50
2023-06-19T03:41:58.552Z,48.44
2023-06-19T03:42:58.518Z,48.27
2023-06-19T03:43:58.594Z,48.31
2023-06-19T03:44:58.609Z,48.18
2023-06-19T03:45:58.671Z,48.18
2023-06-19T03:46:58.645Z,48.30
2023-06-19T03:47:58.774Z,48.36
2023-06-19T03:48:58.759Z,48.33
2023-06-19T03:50:07.604Z,48.31
2023-06-19T03:50:59.772Z,48.41
2023-06-19T03:51:58.797Z,48.45
2023-06-19T03:52:58.795Z,48.46
2023-06-19T03:53:59.157Z,48.68
2023-06-19T03:54:58.754Z,48.53
2023-06-19T03:55:58.782Z,48.36
2023-06-19T03:56:58.780Z,48.21
2023-06-19T03:57:59.017Z,47.93
2023-06-19T03:58:59.097Z,48.27
2023-06-19T03:59:58.727Z,48.11
2023-06-19T04:00:58.784Z,48.11
2023-06-19T04:01:58.893Z,47.94
2023-06-19T04:02:58.914Z,47.73
2023-06-19T04:03:58.988Z,47.65
2023-06-19T04:04:58.917Z,47.45
2023-06-19T04:05:58.949Z,47.58
2023-06-19T04:06:58.994Z,47.78
2023-06-19T04:07:58.997Z,47.91
2023-06-19T04:08:59.047Z,47.93
2023-06-19T04:09:59.105Z,47.99
2023-06-19T04:10:59.063Z,48.07
2023-06-19T04:11:59.091Z,48.13
2023-06-19T04:12:59.151Z,48.33
2023-06-19T04:13:59.166Z,48.40
2023-06-19T04:14:59.158Z,48.33
2023-06-19T04:15:59.251Z,48.24
2023-06-19T04:16:59.173Z,48.07
2023-06-19T04:17:59.237Z,48.04
2023-06-19T04:18:59.235Z,48.29
2023-06-19T04:19:59.234Z,48.56
2023-06-19T04:20:59.204Z,48.47
2023-06-19T04:21:59.217Z,48.47
2023-06-19T04:22:59.209Z,48.71
2023-06-19T04:23:59.313Z,48.92
2023-06-19T04:24:59.213Z,49.11
2023-06-19T04:25:59.243Z,49.29
2023-06-19T04:26:59.218Z,49.10
2023-06-19T04:27:59.269Z,48.79
2023-06-19T04:28:59.265Z,48.55
2023-06-19T04:29:59.303Z,48.41
2023-06-19T04:30:59.298Z,48.06
2023-06-19T04:31:59.299Z,47.81
2023-06-19T04:32:59.419Z,47.51
2023-06-19T04:33:59.370Z,47.52
2023-06-19T04:34:59.383Z,47.75
2023-06-19T04:35:59.472Z,48.18
2023-06-19T04:36:59.549Z,48.38
2023-06-19T04:37:59.530Z,48.76
2023-06-19T04:38:59.579Z,48.95
2023-06-19T04:39:59.776Z,49.10
2023-06-19T04:40:59.664Z,48.82
2023-06-19T04:41:59.608Z,48.79
2023-06-19T04:42:59.638Z,48.46
2023-06-19T04:43:59.920Z,48.55
2023-06-19T04:44:59.670Z,48.80
2023-06-19T04:45:59.617Z,48.96
2023-06-19T04:46:59.585Z,49.08
2023-06-19T04:47:59.572Z,49.13
2023-06-19T04:48:59.576Z,49.24
2023-06-19T04:49:59.587Z,48.95
2023-06-19T04:50:59.565Z,48.70
2023-06-19T04:51:59.620Z,48.68
2023-06-19T04:52:59.693Z,48.66
2023-06-19T04:53:59.716Z,48.63
2023-06-19T04:54:59.827Z,48.66
2023-06-19T04:56:02.390Z,48.63
2023-06-19T04:56:59.845Z,48.58
2023-06-19T04:57:59.856Z,48.57
2023-06-19T04:58:59.839Z,48.29
2023-06-19T04:59:59.848Z,47.97
2023-06-19T05:02:31.161Z,49.22
2023-06-19T05:03:39.928Z,48.34
2023-06-19T05:04:39.492Z,48.23
2023-06-19T05:05:39.548Z,48.12
2023-06-19T05:06:39.474Z,47.88
2023-06-19T05:07:39.530Z,47.75
2023-06-19T05:08:39.572Z,47.54
2023-06-19T05:09:39.462Z,47.25
2023-06-19T05:10:40.351Z,47.03
2023-06-19T05:11:39.440Z,46.64
2023-06-19T05:12:40.362Z,46.48
2023-06-19T05:13:40.410Z,46.31
2023-06-19T05:14:39.392Z,45.87
2023-06-19T05:15:39.440Z,45.80
2023-06-19T05:16:39.412Z,45.63
2023-06-19T05:17:39.477Z,45.41
2023-06-19T05:18:39.340Z,45.48
2023-06-19T05:19:39.418Z,45.45
2023-06-19T05:20:39.340Z,45.34
2023-06-19T05:21:39.368Z,45.32
2023-06-19T05:22:39.385Z,45.32
2023-06-19T05:23:39.270Z,45.17
2023-06-19T05:24:39.514Z,45.09
2023-06-19T05:25:39.348Z,44.79
2023-06-19T05:26:39.864Z,44.61
2023-06-19T05:27:39.480Z,44.31
2023-06-19T05:28:40.424Z,44.30
2023-06-19T05:29:40.377Z,44.34
2023-06-19T05:30:39.533Z,44.28
2023-06-19T05:31:39.636Z,44.30
2023-06-19T05:32:39.666Z,44.42
2023-06-19T05:33:39.652Z,44.16
2023-06-19T05:34:39.743Z,43.93
2023-06-19T05:35:39.674Z,43.90
2023-06-19T05:36:39.640Z,44.04
2023-06-19T05:37:39.568Z,44.13
2023-06-19T05:38:39.559Z,44.34
2023-06-19T05:39:40.188Z,44.54
2023-06-19T05:40:39.790Z,44.83
2023-06-19T05:41:39.875Z,45.02
2023-06-19T05:42:39.896Z,44.89
2023-06-19T05:43:39.813Z,44.91
2023-06-19T05:44:40.431Z,44.77
2023-06-19T05:45:40.042Z,44.75
2023-06-19T05:46:53.939Z,44.29
2023-06-19T05:48:00.692Z,44.53
2023-06-19T05:48:59.208Z,44.48
2023-06-19T05:49:59.290Z,43.93
2023-06-19T05:50:59.158Z,44.29
2023-06-19T05:51:59.692Z,44.66
2023-06-19T05:52:59.410Z,44.26
2023-06-19T05:53:59.306Z,44.20
2023-06-19T05:54:59.191Z,44.10
2023-06-19T05:55:59.286Z,44.09
2023-06-19T05:57:00.277Z,44.17
2023-06-19T05:58:00.215Z,44.17
2023-06-19T05:59:00.180Z,43.83
2023-06-19T05:59:59.302Z,43.69
2023-06-19T06:01:00.167Z,43.75
2023-06-19T06:01:59.221Z,43.63
2023-06-19T06:02:59.657Z,43.63
2023-06-19T06:03:59.378Z,43.76
2023-06-19T06:04:59.823Z,43.81
2023-06-19T06:05:59.417Z,43.58
2023-06-19T06:06:59.448Z,43.54
2023-06-19T06:07:59.612Z,43.26
2023-06-19T06:09:00.145Z,43.17
2023-06-19T06:10:00.373Z,43.20
2023-06-19T06:11:00.210Z,43.22
2023-06-19T06:12:00.460Z,43.22
2023-06-19T06:12:59.995Z,43.21
2023-06-19T06:14:00.286Z,43.24
2023-06-19T06:15:00.909Z,43.30
2023-06-19T06:16:00.625Z,43.33
2023-06-19T06:17:00.857Z,43.64
2023-06-19T06:18:01.088Z,43.98
2023-06-19T06:19:01.144Z,43.64
2023-06-19T06:20:00.782Z,43.79
2023-06-19T06:21:01.405Z,43.06
2023-06-19T06:22:01.022Z,42.93
2023-06-19T06:23:01.629Z,43.17
2023-06-19T06:24:00.624Z,42.79
2023-06-19T06:25:00.691Z,42.51
2023-06-19T06:26:00.975Z,42.33
2023-06-19T06:27:00.572Z,42.09
2023-06-19T06:28:02.138Z,42.55
2023-06-19T06:29:00.837Z,42.07
2023-06-19T06:30:01.011Z,41.85
2023-06-19T06:31:01.705Z,41.77
2023-06-19T06:32:01.581Z,42.66
2023-06-19T06:33:00.785Z,42.26
2023-06-19T06:34:00.729Z,41.75
2023-06-19T06:35:00.493Z,42.01
2023-06-19T06:36:00.491Z,42.51
2023-06-19T06:37:05.905Z,42.68
2023-06-19T06:38:01.618Z,42.56
2023-06-19T06:39:00.552Z,42.54
2023-06-19T06:40:00.631Z,42.65
2023-06-19T06:41:00.963Z,42.80
2023-06-19T06:42:00.783Z,42.71
2023-06-19T06:43:01.499Z,43.29
2023-06-19T06:44:01.275Z,43.31
2023-06-19T06:45:01.623Z,42.91
2023-06-19T06:46:01.157Z,42.54
2023-06-19T06:47:01.176Z,42.55
2023-06-19T06:48:00.868Z,42.21
2023-06-19T06:49:01.723Z,42.09
2023-06-19T06:50:00.771Z,41.93
2023-06-19T06:51:01.711Z,41.67
2023-06-19T06:52:00.787Z,41.97
2023-06-19T06:53:01.296Z,41.79
2023-06-19T06:54:01.819Z,41.91
2023-06-19T06:55:01.257Z,41.33
2023-06-19T06:56:00.764Z,41.57
2023-06-19T06:57:01.132Z,41.15
2023-06-19T06:58:01.598Z,41.07
2023-06-19T06:59:01.562Z,40.27
2023-06-19T07:00:01.609Z,39.87
2023-06-19T07:01:01.575Z,39.85
2023-06-19T07:02:01.734Z,39.67
2023-06-19T07:03:01.496Z,39.64
2023-06-19T07:04:01.289Z,39.34
2023-06-19T07:05:01.336Z,39.09
2023-06-19T07:06:03.000Z,38.96
2023-06-19T07:07:01.573Z,38.93
2023-06-19T07:08:02.351Z,38.92
2023-06-19T07:09:01.645Z,39.19
2023-06-19T07:10:01.295Z,38.68
2023-06-19T07:11:01.350Z,38.53
2023-06-19T07:12:02.216Z,38.81
2023-06-19T07:13:02.126Z,39.01
2023-06-19T07:14:01.643Z,38.67
2023-06-19T07:15:01.543Z,39.07
2023-06-19T07:16:01.766Z,38.23
2023-06-19T07:17:01.409Z,37.97
2023-06-19T07:18:02.197Z,37.98
2023-06-19T07:19:01.701Z,37.81
2023-06-19T07:20:01.773Z,37.29
2023-06-19T07:21:02.579Z,37.38
2023-06-19T07:22:01.859Z,37.43
2023-06-19T07:23:02.282Z,37.34
2023-06-19T07:24:02.054Z,37.27
2023-06-19T07:25:01.771Z,37.25
2023-06-19T07:26:02.315Z,37.59
2023-06-19T07:27:02.302Z,37.34
2023-06-19T07:28:02.058Z,37.23
2023-06-19T07:29:02.004Z,37.51
2023-06-19T07:30:02.103Z,37.82
2023-06-19T07:31:02.809Z,37.62
2023-06-19T07:32:02.099Z,38.33
2023-06-19T07:33:02.812Z,38.20
2023-06-19T07:34:03.057Z,38.99
2023-06-19T07:35:03.723Z,37.82
2023-06-19T07:36:02.985Z,37.61
2023-06-19T07:37:05.821Z,38.46
2023-06-19T07:38:02.328Z,38.74
2023-06-19T07:39:03.689Z,38.69
2023-06-19T07:40:02.946Z,38.01
2023-06-19T07:41:03.388Z,37.94
2023-06-19T07:42:02.738Z,37.63
2023-06-19T07:43:02.575Z,37.70
2023-06-19T07:44:02.243Z,37.66
2023-06-19T07:45:02.945Z,38.02
2023-06-19T07:46:03.581Z,37.73
2023-06-19T07:47:03.581Z,37.96
2023-06-19T07:48:03.680Z,37.97
2023-06-19T07:49:03.757Z,38.07
2023-06-19T07:50:02.691Z,37.59
2023-06-19T07:51:04.987Z,37.32
2023-06-19T07:52:03.973Z,37.24
2023-06-19T07:53:04.362Z,36.54
2023-06-19T07:54:02.354Z,36.41
2023-06-19T07:55:03.139Z,36.60
2023-06-19T07:56:03.274Z,36.60
2023-06-19T07:57:03.196Z,36.08
2023-06-19T07:58:03.204Z,36.20
2023-06-19T07:59:05.091Z,36.13
2023-06-19T08:00:03.479Z,36.67
2023-06-19T08:01:02.920Z,36.55
2023-06-19T08:02:03.084Z,36.83
2023-06-19T08:03:04.004Z,36.66
2023-06-19T08:04:03.842Z,36.30
2023-06-19T08:05:03.740Z,35.94
2023-06-19T08:06:02.943Z,35.38
2023-06-19T08:07:04.682Z,35.37
2023-06-19T08:08:03.709Z,36.43
2023-06-19T08:09:03.215Z,36.36
2023-06-19T08:10:13.006Z,36.00
2023-06-19T08:11:03.934Z,35.22
2023-06-19T08:12:03.749Z,35.49
2023-06-19T08:13:03.716Z,35.44
2023-06-19T08:14:03.751Z,34.83
2023-06-19T08:15:03.712Z,36.00
2023-06-19T08:16:02.985Z,35.13
2023-06-19T08:17:03.857Z,34.90
2023-06-19T08:18:03.005Z,35.03
2023-06-19T08:19:02.731Z,35.36
2023-06-19T08:20:02.755Z,34.99
2023-06-19T08:21:03.690Z,34.96
2023-06-19T08:22:02.743Z,34.41
2023-06-19T08:23:03.814Z,34.58
2023-06-19T08:24:02.782Z,33.63
2023-06-19T08:25:02.777Z,33.41
2023-06-19T08:26:02.809Z,33.64
2023-06-19T08:27:02.755Z,33.47
2023-06-19T08:28:02.908Z,33.76
2023-06-19T08:29:02.748Z,33.36
2023-06-19T08:30:02.787Z,33.73
2023-06-19T08:31:02.802Z,33.08
2023-06-19T08:32:02.797Z,32.91
2023-06-19T08:33:02.710Z,32.99
2023-06-19T08:34:02.743Z,33.19
2023-06-19T08:35:02.592Z,33.24
2023-06-19T08:36:02.608Z,32.99
2023-06-19T08:37:02.827Z,32.87
2023-06-19T08:38:02.817Z,32.60
2023-06-19T08:39:02.643Z,32.70
2023-06-19T08:40:02.743Z,32.88
2023-06-19T08:41:03.240Z,32.46
2023-06-19T08:42:02.833Z,32.90
2023-06-19T08:43:02.698Z,32.85
2023-06-19T08:44:02.888Z,33.26
2023-06-19T08:45:02.771Z,32.37
2023-06-19T08:46:02.736Z,32.08
2023-06-19T08:47:02.792Z,32.45
2023-06-19T08:48:02.683Z,31.99
2023-06-19T08:49:02.630Z,32.11
2023-06-19T08:50:03.261Z,32.39
2023-06-19T08:51:02.608Z,32.32
2023-06-19T08:52:03.104Z,32.35
2023-06-19T08:53:02.599Z,32.08
2023-06-19T08:54:02.661Z,31.77
2023-06-19T08:55:02.690Z,32.08
2023-06-19T08:56:02.688Z,31.87
2023-06-19T08:57:02.914Z,32.12
2023-06-19T08:58:02.619Z,31.99
2023-06-19T08:59:02.677Z,31.62
2023-06-19T09:00:02.577Z,31.14
2023-06-19T09:01:02.891Z,31.48
2023-06-19T09:02:02.656Z,31.46
2023-06-19T09:03:12.557Z,31.65
2023-06-19T09:04:03.644Z,31.55
2023-06-19T09:05:02.675Z,31.76
2023-06-19T09:06:02.587Z,31.36
2023-06-19T09:07:02.660Z,31.07
2023-06-19T09:08:02.519Z,30.92
2023-06-19T09:09:02.641Z,30.79
2023-06-19T09:10:02.660Z,30.57
2023-06-19T09:11:02.650Z,30.26
2023-06-19T09:12:02.879Z,30.50
2023-06-19T09:13:02.463Z,30.21
2023-06-19T09:14:02.746Z,30.21
2023-06-19T09:15:02.497Z,29.72
2023-06-19T09:16:02.510Z,29.55
2023-06-19T09:17:02.807Z,29.92
2023-06-19T09:18:02.560Z,29.70
2023-06-19T09:19:02.707Z,29.89
2023-06-19T09:20:02.950Z,29.12
2023-06-19T09:21:03.633Z,28.85
2023-06-19T09:22:02.691Z,28.59
2023-06-19T09:23:02.646Z,28.90
2023-06-19T09:24:02.733Z,28.80
2023-06-19T09:25:02.843Z,29.20
2023-06-19T09:26:02.730Z,29.38
2023-06-19T09:27:02.933Z,29.81
2023-06-19T09:28:02.728Z,30.17
2023-06-19T09:29:02.658Z,30.26
2023-06-19T09:30:03.316Z,29.63
2023-06-19T09:31:02.781Z,29.08
2023-06-19T09:32:02.890Z,28.99
2023-06-19T09:33:02.904Z,29.52
2023-06-19T09:34:02.975Z,29.25
2023-06-19T09:35:02.824Z,29.50
2023-06-19T09:36:02.842Z,29.65
2023-06-19T09:37:02.874Z,29.45
2023-06-19T09:38:02.841Z,29.67
2023-06-19T09:39:02.920Z,29.84
2023-06-19T09:40:02.847Z,29.53
2023-06-19T09:41:03.681Z,29.21
2023-06-19T09:42:02.911Z,29.13
2023-06-19T09:43:04.492Z,29.15
2023-06-19T09:44:02.753Z,28.83
2023-06-19T09:45:03.914Z,28.36
2023-06-19T09:46:03.038Z,28.20
2023-06-19T09:47:02.774Z,28.67
2023-06-19T09:48:02.928Z,28.47
2023-06-19T09:49:03.811Z,28.82
2023-06-19T09:50:03.375Z,29.00
2023-06-19T09:51:03.526Z,29.14
2023-06-19T09:52:04.971Z,28.50
2023-06-19T09:53:05.312Z,28.39
2023-06-19T09:54:03.064Z,28.37
2023-06-19T09:55:03.962Z,28.20
2023-06-19T09:56:03.943Z,27.92
2023-06-19T09:57:03.619Z,27.91
2023-06-19T09:58:04.436Z,27.58
2023-06-19T09:59:04.719Z,27.25
2023-06-19T10:00:04.554Z,27.55
2023-06-19T10:01:04.096Z,27.09
2023-06-19T10:02:04.387Z,27.28
2023-06-19T10:03:04.319Z,27.61
2023-06-19T10:04:05.437Z,27.50
2023-06-19T10:06:23.588Z,27.20
2023-06-19T10:07:24.066Z,27.51
2023-06-19T10:08:24.019Z,27.60
2023-06-19T10:09:23.965Z,27.29
2023-06-19T10:10:23.822Z,27.32
2023-06-19T10:11:23.473Z,27.19
2023-06-19T10:12:24.911Z,26.83
2023-06-19T10:13:32.484Z,26.70
2023-06-19T10:14:23.644Z,26.41
2023-06-19T10:15:23.095Z,27.04
2023-06-19T10:16:23.708Z,27.47
2023-06-19T10:17:23.215Z,27.93
2023-06-19T10:18:23.413Z,27.77
2023-06-19T10:19:23.615Z,27.71
2023-06-19T10:20:24.869Z,27.73
2023-06-19T10:21:25.925Z,27.65
2023-06-19T10:22:24.253Z,27.54
2023-06-19T10:23:23.605Z,27.72
2023-06-19T10:28:22.722Z,28.81
2023-06-19T10:29:22.877Z,27.78
2023-06-19T10:30:23.420Z,27.93
2023-06-19T10:31:22.098Z,27.56
2023-06-19T10:32:22.064Z,27.36
2023-06-19T10:33:22.050Z,27.59
2023-06-19T10:34:22.041Z,27.21
2023-06-19T10:35:21.993Z,27.10
2023-06-19T10:36:22.106Z,27.25
2023-06-19T10:37:22.080Z,27.27
2023-06-19T10:38:22.166Z,26.54
2023-06-19T10:39:22.191Z,26.54
2023-06-19T10:40:22.602Z,26.42
2023-06-19T10:41:22.004Z,26.56
2023-06-19T10:42:21.958Z,26.35
2023-06-19T10:43:22.226Z,26.76
2023-06-19T10:44:22.045Z,26.55
2023-06-19T10:45:21.989Z,27.06
2023-06-19T10:46:22.112Z,26.86
2023-06-19T10:47:22.376Z,26.91
2023-06-19T10:48:22.146Z,26.96
2023-06-19T10:49:21.939Z,27.39
2023-06-19T10:50:22.152Z,27.09
2023-06-19T10:51:21.908Z,26.78
2023-06-19T10:52:21.938Z,26.91
2023-06-19T10:53:22.126Z,26.83
2023-06-19T10:54:21.915Z,26.76
2023-06-19T10:55:22.150Z,26.88
2023-06-19T10:56:21.949Z,26.81
2023-06-19T10:57:21.885Z,26.41
2023-06-19T10:58:22.380Z,26.28
2023-06-19T10:59:21.898Z,26.22
2023-06-19T11:00:22.151Z,25.89
2023-06-19T11:01:21.896Z,25.60
2023-06-19T11:02:21.972Z,26.44
2023-06-19T11:03:22.194Z,26.62
2023-06-19T11:04:21.877Z,25.95
2023-06-19T11:05:22.458Z,25.89
2023-06-19T11:06:21.901Z,25.55
2023-06-19T11:07:21.857Z,25.27
2023-06-19T11:08:21.986Z,25.26
2023-06-19T11:09:21.798Z,25.48
2023-06-19T11:10:21.908Z,25.90
2023-06-19T11:11:21.810Z,25.23
2023-06-19T11:12:21.863Z,25.41
2023-06-19T11:13:22.179Z,25.18
2023-06-19T11:14:22.094Z,24.88
2023-06-19T11:15:21.834Z,24.59
2023-06-19T11:16:21.836Z,24.55
2023-06-19T11:17:21.916Z,25.06
2023-06-19T11:18:21.863Z,24.98
2023-06-19T11:19:21.933Z,24.99
2023-06-19T11:20:22.369Z,24.58
2023-06-19T11:21:21.763Z,24.87
2023-06-19T11:22:21.735Z,24.03
2023-06-19T11:23:21.725Z,24.16
2023-06-19T11:24:22.408Z,24.37
2023-06-19T11:25:21.729Z,24.08
2023-06-19T11:26:22.022Z,24.36
2023-06-19T11:27:21.870Z,24.53
2023-06-19T11:28:22.029Z,24.00
2023-06-19T11:29:22.154Z,24.03
2023-06-19T11:30:22.051Z,24.41
2023-06-19T11:31:22.964Z,24.31
2023-06-19T11:32:22.267Z,24.57
2023-06-19T11:33:22.070Z,24.36
2023-06-19T11:34:24.649Z,24.35
2023-06-19T11:35:22.066Z,24.19
2023-06-19T11:36:22.031Z,24.24
2023-06-19T11:37:22.040Z,24.32
2023-06-19T11:38:21.992Z,24.55
2023-06-19T11:39:22.110Z,24.29
2023-06-19T11:40:22.220Z,24.35
2023-06-19T11:41:22.018Z,24.46
2023-06-19T11:42:22.048Z,24.56
2023-06-19T11:43:21.978Z,24.47
2023-06-19T11:44:22.037Z,25.43
2023-06-19T11:45:22.079Z,25.23
2023-06-19T11:46:21.993Z,24.64
2023-06-19T11:47:22.000Z,25.14
2023-06-19T11:48:22.063Z,24.62
2023-06-19T11:49:21.996Z,24.14
2023-06-19T11:50:23.378Z,23.82
2023-06-19T11:51:22.001Z,23.59
2023-06-19T11:52:21.884Z,23.66
2023-06-19T11:53:21.939Z,23.64
2023-06-19T11:54:22.075Z,24.18
2023-06-19T11:55:21.885Z,23.78
2023-06-19T11:56:21.971Z,23.76
2023-06-19T11:57:21.905Z,23.53
2023-06-19T11:58:22.055Z,23.66
2023-06-19T11:59:21.856Z,23.53
2023-06-19T12:00:22.142Z,23.07
2023-06-19T12:01:21.841Z,22.94
2023-06-19T12:02:21.956Z,23.11
2023-06-19T12:03:22.087Z,23.06
2023-06-19T12:04:22.202Z,23.08
2023-06-19T12:05:21.854Z,22.84
2023-06-19T12:06:21.840Z,22.73
2023-06-19T12:07:21.821Z,22.90
2023-06-19T12:08:21.791Z,22.41
2023-06-19T12:09:21.812Z,22.70
2023-06-19T12:10:22.156Z,22.44
2023-06-19T12:11:21.797Z,22.59
2023-06-19T12:12:21.770Z,22.44
2023-06-19T12:13:21.815Z,22.35
2023-06-19T12:14:21.784Z,21.97
2023-06-19T12:15:21.792Z,22.10
2023-06-19T12:16:21.801Z,22.48
2023-06-19T12:17:21.787Z,22.39
2023-06-19T12:18:21.789Z,22.42
2023-06-19T12:19:21.800Z,22.42
2023-06-19T12:20:21.995Z,22.55
2023-06-19T12:21:35.005Z,22.54
2023-06-19T12:22:22.729Z,22.33
2023-06-19T12:23:21.694Z,23.39
2023-06-19T12:24:21.784Z,23.08
2023-06-19T12:25:21.663Z,22.43
2023-06-19T12:26:21.790Z,21.64
2023-06-19T12:27:21.711Z,22.14
2023-06-19T12:28:21.671Z,22.23
2023-06-19T12:29:21.674Z,22.55
2023-06-19T12:30:21.816Z,22.41
2023-06-19T12:31:21.916Z,22.06
2023-06-19T12:32:21.898Z,21.27
2023-06-19T12:33:21.904Z,20.48
2023-06-19T12:34:31.309Z,20.40
2023-06-19T12:35:22.856Z,20.61
2023-06-19T12:36:21.837Z,20.99
2023-06-19T12:37:21.843Z,21.83
2023-06-19T12:38:21.802Z,20.89
2023-06-19T12:39:21.822Z,20.35
2023-06-19T12:40:22.030Z,20.45
2023-06-19T12:41:21.830Z,19.99
2023-06-19T12:42:21.843Z,20.54
2023-06-19T12:43:21.844Z,21.14
2023-06-19T12:44:21.814Z,21.39
2023-06-19T12:45:21.807Z,21.40
2023-06-19T12:46:21.791Z,21.05
2023-06-19T12:47:21.749Z,21.60
2023-06-19T12:48:21.821Z,22.11
2023-06-19T12:49:21.768Z,21.47
2023-06-19T12:50:22.055Z,21.96
2023-06-19T12:51:21.843Z,22.15
2023-06-19T12:52:21.845Z,23.43
2023-06-19T12:53:21.894Z,23.13
2023-06-19T12:54:21.891Z,22.36
2023-06-19T12:55:21.934Z,22.80
2023-06-19T12:56:21.993Z,22.90
2023-06-19T12:57:22.031Z,22.98
2023-06-19T12:58:22.081Z,22.43
2023-06-19T12:59:22.019Z,22.14
2023-06-19T13:00:22.167Z,22.65
2023-06-19T13:01:22.281Z,21.95